Time;durP1;ratioP1;P1;durP2;ratioP2;P2;SDS_P1;SDS_P2;PMS_P1;PMS_P2;Temp;Humidity;BMP_temperature;BMP_pressure;BME280_temperature;BME280_humidity;BME280_pressure;Samples;Min_cycle;Max_cycle;Signal;HPM_P1;HPM_P2
2023/01/17 00:01:59;;;;;;;1.70;1.25;;;;;;;4.14;86.08;97968.84;6090945;23;20010;-74
2023/01/17 00:10:00;;;;;;;1.80;1.17;;;;;;;4.23;85.41;97981.34;6090794;23;20064;-73
2023/01/17 00:12:28;;;;;;;1.73;1.10;;;;;;;4.23;85.38;97993.28;6092142;23;20037;-73
2023/01/17 00:14:55;;;;;;;1.50;1.02;;;;;;;4.23;85.47;97995.84;6090920;23;20434;-73
2023/01/17 00:17:25;;;;;;;0.90;0.80;;;;;;;4.20;85.29;97986.56;6092045;23;20041;-74
2023/01/17 01:35:16;;;;;;;1.73;0.70;;;;;;;3.88;82.38;98116.88;6090064;23;20069;-73
2023/01/17 01:37:42;;;;;;;3.60;0.73;;;;;;;3.86;82.43;98113.50;6091924;23;20018;-73
2023/01/17 01:40:08;;;;;;;3.35;0.80;;;;;;;3.82;82.40;98125.53;6092082;23;20605;-73
2023/01/17 01:42:34;;;;;;;2.15;0.90;;;;;;;3.79;82.89;98135.00;6092343;23;20097;-73
2023/01/17 01:44:59;;;;;;;2.03;0.75;;;;;;;3.75;82.71;98138.47;6093360;23;20112;-73
2023/01/17 01:47:29;;;;;;;4.57;0.90;;;;;;;3.73;82.04;98141.09;6093059;23;20033;-73
2023/01/17 01:49:58;;;;;;;2.22;1.08;;;;;;;3.75;82.57;98151.25;6092163;23;20032;-73
2023/01/17 01:52:27;;;;;;;4.10;0.85;;;;;;;3.73;83.00;98155.56;6090784;23;20010;-73
2023/01/17 01:54:59;;;;;;;1.95;0.95;;;;;;;3.74;82.93;98164.88;6093332;23;20032;-72
2023/01/17 01:57:30;;;;;;;3.83;1.00;;;;;;;3.71;82.99;98155.59;6092633;23;20010;-72
2023/01/17 02:00:03;;;;;;;1.75;1.00;;;;;;;3.73;83.23;98161.53;6093725;23;20107;-73
2023/01/17 02:02:30;;;;;;;4.32;1.10;;;;;;;3.71;83.04;98160.69;6092654;23;20038;-73
2023/01/17 02:04:57;;;;;;;1.58;1.10;;;;;;;3.70;83.45;98174.38;6089409;23;20023;-73
2023/01/17 02:07:30;;;;;;;3.63;1.10;;;;;;;3.62;83.50;98170.31;6092750;23;20447;-73
2023/01/17 02:09:57;;;;;;;3.85;1.38;;;;;;;3.58;84.12;98177.19;6093041;23;20013;-72
2023/01/17 02:12:23;;;;;;;2.05;0.95;;;;;;;3.53;84.09;98186.63;6091489;23;20018;-72
2023/01/17 02:14:49;;;;;;;3.33;1.20;;;;;;;3.47;84.70;98195.28;6093078;23;20018;-73
2023/01/17 02:17:23;;;;;;;3.60;1.38;;;;;;;3.48;84.68;98193.56;6092295;23;20026;-72
2023/01/17 02:20:22;;;;;;;3.05;1.52;;;;;;;3.51;84.89;98194.34;6091010;23;20021;-71
2023/01/17 02:23:22;;;;;;;2.30;1.45;;;;;;;3.56;84.03;98196.78;6091516;23;20014;-72
2023/01/17 02:26:15;;;;;;;2.63;1.40;;;;;;;3.60;84.12;98200.13;6091184;23;20046;-73
2023/01/17 02:29:32;;;;;;;3.50;2.00;;;;;;;3.62;84.01;98209.44;6092656;23;20097;-73
2023/01/17 02:32:02;;;;;;;5.20;2.10;;;;;;;3.65;83.37;98211.06;6079677;23;20046;-72
2023/01/17 02:34:44;;;;;;;4.55;1.98;;;;;;;3.63;83.93;98200.06;6091458;23;20536;-72
2023/01/17 02:37:13;;;;;;;4.88;2.13;;;;;;;3.62;83.46;98206.06;6092192;23;20030;-73
2023/01/17 02:40:21;;;;;;;4.10;2.10;;;;;;;3.62;83.04;98206.88;6093226;23;20058;-72
2023/01/17 02:42:56;;;;;;;7.53;2.33;;;;;;;3.61;83.75;98210.31;6084635;23;20022;-72
2023/01/17 02:45:22;;;;;;;5.95;2.40;;;;;;;3.58;82.94;98217.19;6092380;23;20074;-72
2023/01/17 02:47:47;;;;;;;6.95;2.30;;;;;;;3.56;84.22;98227.44;6093046;23;20023;-73
2023/01/17 02:50:55;;;;;;;5.63;1.95;;;;;;;3.56;83.03;98236.84;6081667;23;20515;-73
2023/01/17 02:53:32;;;;;;;4.82;2.38;;;;;;;3.55;83.17;98251.31;6081681;23;20061;-72
2023/01/17 02:56:03;;;;;;;4.80;2.30;;;;;;;3.56;83.55;98241.94;6091544;23;20073;-73
2023/01/17 02:58:50;;;;;;;3.63;2.25;;;;;;;3.56;83.96;98240.22;6091471;23;20009;-73
2023/01/17 03:01:52;;;;;;;8.13;1.88;;;;;;;3.57;81.69;98244.44;6092882;23;20073;-73
2023/01/17 03:04:34;;;;;;;6.82;2.40;;;;;;;3.58;81.33;98228.25;6091419;23;20445;-73
2023/01/17 03:07:03;;;;;;;3.72;2.10;;;;;;;3.61;80.43;98227.34;6091734;23;20009;-72
2023/01/17 03:09:31;;;;;;;3.60;2.15;;;;;;;3.64;79.84;98235.81;6090028;23;20011;-72
2023/01/17 03:11:58;;;;;;;4.10;2.20;;;;;;;3.64;80.17;98242.63;6092225;23;20112;-72
2023/01/17 03:14:23;;;;;;;6.60;2.38;;;;;;;3.61;79.34;98232.47;6092433;23;20029;-72
2023/01/17 03:16:49;;;;;;;4.15;1.92;;;;;;;3.58;79.12;98235.09;6091999;23;20018;-72
2023/01/17 03:19:14;;;;;;;4.47;1.58;;;;;;;3.55;78.88;98230.88;6094624;23;20379;-72
2023/01/17 03:21:40;;;;;;;7.95;2.03;;;;;;;3.53;80.21;98241.13;6093395;23;20022;-72
2023/01/17 03:24:06;;;;;;;8.38;1.98;;;;;;;3.53;79.24;98243.66;6094573;23;20018;-71
2023/01/17 03:26:31;;;;;;;5.65;1.70;;;;;;;3.53;79.70;98245.38;6094445;23;20029;-71
2023/01/17 03:28:56;;;;;;;5.22;1.73;;;;;;;3.52;80.27;98257.31;6097871;23;20038;-71
2023/01/17 03:31:25;;;;;;;6.25;2.20;;;;;;;3.49;79.92;98257.41;6095082;23;20456;-74
2023/01/17 03:33:50;;;;;;;4.35;1.60;;;;;;;3.46;79.71;98264.25;6093884;23;20033;-74
2023/01/17 03:36:16;;;;;;;8.10;1.83;;;;;;;3.44;79.93;98266.00;6091726;23;20350;-74
2023/01/17 03:38:41;;;;;;;4.68;1.63;;;;;;;3.47;79.15;98266.78;6093169;23;20097;-74
2023/01/17 03:41:07;;;;;;;7.57;1.67;;;;;;;3.46;79.52;98282.13;6092872;23;20027;-74
2023/01/17 03:43:32;;;;;;;7.65;2.28;;;;;;;3.48;79.04;98277.84;6092222;23;20762;-74
2023/01/17 03:46:15;;;;;;;4.35;1.95;;;;;;;3.48;79.66;98283.78;6092002;23;20002;-74
2023/01/17 03:48:41;;;;;;;7.03;1.85;;;;;;;3.51;79.35;98283.72;6091935;23;20476;-74
2023/01/17 03:51:06;;;;;;;5.18;1.98;;;;;;;3.50;79.79;98284.59;6090437;23;20015;-74
2023/01/17 03:53:32;;;;;;;8.00;1.80;;;;;;;3.52;78.57;98275.19;6090705;23;20085;-75
2023/01/17 03:55:57;;;;;;;5.30;2.00;;;;;;;3.52;78.05;98282.88;6091630;23;20034;-74
2023/01/17 03:58:22;;;;;;;4.53;1.63;;;;;;;3.54;78.09;98270.91;6091719;23;20117;-74
2023/01/17 04:00:48;;;;;;;4.20;2.17;;;;;;;3.56;78.46;98283.63;6091020;23;20017;-75
2023/01/17 04:03:13;;;;;;;5.80;2.17;;;;;;;3.57;77.91;98284.47;6090508;23;20025;-74
2023/01/17 04:05:39;;;;;;;4.70;2.10;;;;;;;3.58;78.08;98274.25;6089753;23;20022;-74
2023/01/17 04:08:05;;;;;;;3.95;1.95;;;;;;;3.58;78.07;98284.44;6091155;23;20014;-74
2023/01/17 04:10:31;;;;;;;5.22;2.03;;;;;;;3.58;78.85;98297.22;6091672;23;20007;-74
2023/01/17 04:12:56;;;;;;;3.67;1.77;;;;;;;3.61;77.57;98276.72;6092374;23;20406;-75
2023/01/17 04:15:22;;;;;;;2.60;1.70;;;;;;;3.62;78.04;98287.78;6090224;23;20021;-74
2023/01/17 04:17:47;;;;;;;5.82;2.33;;;;;;;3.61;77.50;98278.44;6092053;23;20046;-75
2023/01/17 04:20:24;;;;;;;7.65;2.30;;;;;;;3.60;77.95;98287.81;6089746;23;20021;-74
2023/01/17 04:22:49;;;;;;;4.57;2.00;;;;;;;3.58;76.74;98270.84;6091093;23;20010;-75
2023/01/17 04:25:14;;;;;;;9.30;2.15;;;;;;;3.52;77.51;98267.53;6091277;23;20390;-75
2023/01/17 04:27:40;;;;;;;2.40;1.80;;;;;;;3.42;77.89;98278.81;6089532;23;20010;-74
2023/01/17 04:30:06;;;;;;;6.65;2.45;;;;;;;3.32;78.10;98279.84;6091611;23;20061;-74
2023/01/17 04:32:31;;;;;;;4.40;1.90;;;;;;;3.23;78.17;98285.13;6089012;23;20022;-74
2023/01/17 04:34:57;;;;;;;10.02;2.53;;;;;;;3.14;79.49;98280.19;6090394;23;20661;-74
2023/01/17 04:37:22;;;;;;;5.03;1.73;;;;;;;3.11;79.40;98274.31;6090276;23;20006;-74
2023/01/17 04:39:47;;;;;;;4.70;2.20;;;;;;;3.11;79.28;98284.53;6091116;23;20126;-75
2023/01/17 04:42:13;;;;;;;6.57;3.10;;;;;;;3.10;79.51;98282.84;6089554;23;20037;-74
2023/01/17 04:44:38;;;;;;;5.80;2.13;;;;;;;3.06;79.18;98281.19;6091437;23;20022;-74
2023/01/17 04:47:03;;;;;;;5.85;2.00;;;;;;;2.99;79.35;98281.31;6090347;23;20366;-74
2023/01/17 04:49:30;;;;;;;3.67;2.47;;;;;;;2.94;78.83;98277.16;6089162;23;20006;-74
2023/01/17 04:51:55;;;;;;;6.70;2.28;;;;;;;2.85;79.62;98302.81;6091875;23;20045;-74
2023/01/17 04:54:20;;;;;;;9.90;2.47;;;;;;;2.77;80.17;98297.03;6090449;23;20335;-74
2023/01/17 04:56:46;;;;;;;7.13;2.25;;;;;;;2.76;79.70;98300.44;6089116;23;20027;-74
2023/01/17 04:59:11;;;;;;;3.88;2.30;;;;;;;2.75;79.71;98296.22;6090434;23;20022;-74
2023/01/17 05:01:36;;;;;;;4.40;2.35;;;;;;;2.77;79.85;98297.88;6089927;23;20327;-74
2023/01/17 05:04:02;;;;;;;7.60;2.75;;;;;;;2.77;79.24;98299.56;6090549;23;20086;-74
2023/01/17 05:06:27;;;;;;;7.15;2.28;;;;;;;2.80;79.17;98302.06;6090363;23;20362;-75
2023/01/17 05:08:53;;;;;;;8.43;2.38;;;;;;;2.84;79.55;98296.91;6092040;23;20101;-75
2023/01/17 05:11:18;;;;;;;3.85;2.30;;;;;;;2.88;78.73;98303.63;6091589;23;20018;-74
2023/01/17 05:13:46;;;;;;;6.57;2.40;;;;;;;2.88;78.65;98298.53;6092351;23;20011;-74
2023/01/17 05:16:12;;;;;;;5.55;2.70;;;;;;;2.86;78.69;98299.41;6089753;23;20607;-75
2023/01/17 05:18:37;;;;;;;5.95;2.35;;;;;;;2.81;78.86;98301.22;6091304;23;20014;-75
2023/01/17 05:21:03;;;;;;;5.65;2.47;;;;;;;2.74;79.31;98308.13;6090895;23;20072;-74
2023/01/17 05:23:29;;;;;;;4.05;2.20;;;;;;;2.67;79.65;98303.13;6092410;23;20107;-74
2023/01/17 05:25:54;;;;;;;4.97;2.40;;;;;;;2.61;79.73;98303.22;6092067;23;20022;-75
2023/01/17 05:28:20;;;;;;;5.53;2.50;;;;;;;2.54;80.38;98305.06;6093026;23;20009;-74
2023/01/17 05:30:45;;;;;;;3.22;2.33;;;;;;;2.50;80.26;98316.16;6093821;23;20043;-74
2023/01/17 05:33:10;;;;;;;4.13;2.38;;;;;;;2.43;80.29;98319.66;6092116;23;20019;-75
2023/01/17 05:35:36;;;;;;;7.22;3.05;;;;;;;2.37;80.61;98315.50;6091118;23;20029;-74
2023/01/17 05:38:01;;;;;;;6.65;2.67;;;;;;;2.30;80.98;98321.56;6093061;23;20018;-74
2023/01/17 05:40:30;;;;;;;4.10;2.65;;;;;;;2.30;81.59;98320.72;6093256;23;20365;-74
2023/01/17 05:42:57;;;;;;;8.23;3.38;;;;;;;2.31;81.05;98315.59;6093996;23;20025;-75
2023/01/17 05:45:24;;;;;;;8.10;4.18;;;;;;;2.36;80.83;98313.84;6091628;23;20019;-74
2023/01/17 05:47:52;;;;;;;6.72;3.30;;;;;;;2.36;80.93;98323.19;6092422;23;20022;-75
2023/01/17 05:50:20;;;;;;;3.95;2.53;;;;;;;2.35;81.31;98324.88;6092073;23;20026;-74
2023/01/17 05:52:50;;;;;;;4.75;2.40;;;;;;;2.37;81.26;98322.28;6094934;23;20094;-74
2023/01/17 05:55:16;;;;;;;4.85;2.53;;;;;;;2.36;81.45;98321.47;6093717;23;20670;-73
2023/01/17 05:57:41;;;;;;;4.85;2.60;;;;;;;2.38;80.88;98329.94;6095633;23;20033;-74
2023/01/17 06:00:08;;;;;;;3.80;2.35;;;;;;;2.38;80.95;98324.84;6094177;23;20335;-74
2023/01/17 06:02:33;;;;;;;5.47;2.38;;;;;;;2.41;80.96;98327.34;6097816;23;20033;-72
2023/01/17 06:04:58;;;;;;;3.92;2.95;;;;;;;2.45;80.50;98329.84;6094892;23;20018;-71
2023/01/17 06:07:24;;;;;;;5.30;2.88;;;;;;;2.49;79.95;98334.84;6093079;23;20049;-71
2023/01/17 06:09:49;;;;;;;6.30;2.75;;;;;;;2.52;79.94;98339.09;6093021;23;20061;-72
2023/01/17 06:12:14;;;;;;;8.52;3.33;;;;;;;2.54;80.27;98345.00;6092284;23;20485;-71
2023/01/17 06:14:40;;;;;;;4.13;2.70;;;;;;;2.55;80.22;98344.97;6092075;23;20465;-72
2023/01/17 06:17:05;;;;;;;5.95;2.95;;;;;;;2.56;79.76;98339.00;6089461;23;20025;-71
2023/01/17 06:19:31;;;;;;;4.05;3.22;;;;;;;2.57;79.66;98339.84;6091903;23;20085;-71
2023/01/17 06:21:56;;;;;;;8.50;2.72;;;;;;;2.58;79.76;98344.91;6092578;23;20012;-70
2023/01/17 06:24:22;;;;;;;4.55;2.92;;;;;;;2.58;79.88;98333.91;6091600;23;20117;-72
2023/01/17 06:26:47;;;;;;;7.82;3.22;;;;;;;2.59;79.61;98338.97;6090830;23;20018;-70
2023/01/17 06:29:13;;;;;;;6.63;3.35;;;;;;;2.63;79.91;98344.88;6091642;23;20022;-71
2023/01/17 06:31:38;;;;;;;5.78;3.20;;;;;;;2.65;79.61;98348.22;6091510;23;20026;-71
2023/01/17 06:34:04;;;;;;;8.25;3.40;;;;;;;2.67;79.82;98349.88;6092106;23;20010;-71
2023/01/17 06:36:31;;;;;;;8.00;3.28;;;;;;;2.67;78.99;98341.38;6091077;23;20022;-70
2023/01/17 06:38:57;;;;;;;6.50;2.90;;;;;;;2.68;79.29;98343.06;6091790;23;20021;-71
2023/01/17 06:41:24;;;;;;;6.13;3.65;;;;;;;2.67;78.88;98344.78;6090397;23;20369;-71
2023/01/17 06:43:52;;;;;;;5.57;2.80;;;;;;;2.66;79.15;98342.28;6091409;23;20018;-71
2023/01/17 06:46:17;;;;;;;8.48;2.92;;;;;;;2.65;78.59;98341.41;6092353;23;20006;-72
2023/01/17 06:48:42;;;;;;;6.93;2.90;;;;;;;2.63;78.47;98345.72;6093514;23;20065;-72
2023/01/17 06:51:08;;;;;;;3.00;2.60;;;;;;;2.62;78.09;98340.63;6092720;23;20065;-72
2023/01/17 06:53:34;;;;;;;6.22;3.00;;;;;;;2.61;78.71;98346.56;6091657;23;20405;-71
2023/01/17 06:55:59;;;;;;;4.90;2.60;;;;;;;2.60;79.00;98347.47;6092041;23;20029;-71
2023/01/17 06:58:25;;;;;;;4.85;2.97;;;;;;;2.57;78.67;98348.34;6092406;23;20085;-71
2023/01/17 07:00:50;;;;;;;5.03;2.50;;;;;;;2.53;78.27;98343.31;6091192;23;20100;-72
2023/01/17 07:03:23;;;;;;;5.15;2.60;;;;;;;2.48;78.39;98350.19;6091126;23;20023;-71
2023/01/17 07:05:50;;;;;;;4.05;2.78;;;;;;;2.43;78.68;98358.75;6091087;23;20428;-71
2023/01/17 07:08:16;;;;;;;4.28;2.65;;;;;;;2.38;78.38;98359.69;6091944;23;20077;-70
2023/01/17 07:10:43;;;;;;;6.20;2.70;;;;;;;2.36;78.62;98363.97;6091906;23;20438;-70
2023/01/17 07:13:10;;;;;;;5.13;2.38;;;;;;;2.36;78.54;98366.50;6092241;23;20018;-70
2023/01/17 07:15:36;;;;;;;4.90;2.80;;;;;;;2.34;78.43;98369.06;6091213;23;20028;-71
2023/01/17 07:18:02;;;;;;;4.85;2.70;;;;;;;2.31;78.36;98364.00;6091956;23;20344;-71
2023/01/17 07:20:28;;;;;;;4.40;2.38;;;;;;;2.29;78.63;98364.91;6090512;23;20021;-71
2023/01/17 07:22:54;;;;;;;4.95;2.63;;;;;;;2.27;78.92;98364.09;6091532;23;20018;-71
2023/01/17 07:25:19;;;;;;;5.78;2.67;;;;;;;2.22;79.25;98355.69;6089992;23;20014;-71
2023/01/17 07:27:45;;;;;;;5.30;2.40;;;;;;;2.15;79.57;98362.56;6092208;23;20064;-70
2023/01/17 07:30:11;;;;;;;4.68;2.90;;;;;;;2.10;79.16;98361.75;6090294;23;20026;-71
2023/01/17 07:32:36;;;;;;;5.40;3.15;;;;;;;2.02;79.37;98361.00;6091994;23;20093;-71
2023/01/17 07:35:02;;;;;;;4.13;2.65;;;;;;;1.95;80.14;98363.69;6090890;23;20022;-71
2023/01/17 07:37:27;;;;;;;5.22;2.70;;;;;;;1.89;80.09;98364.59;6091577;23;20013;-71
2023/01/17 07:39:53;;;;;;;7.30;2.45;;;;;;;1.82;80.50;98361.28;6092082;23;20018;-70
2023/01/17 07:42:19;;;;;;;5.43;3.13;;;;;;;1.75;80.89;98362.19;6090738;23;20079;-70
2023/01/17 07:44:44;;;;;;;5.13;3.03;;;;;;;1.69;81.12;98367.34;6091700;23;20018;-71
2023/01/17 07:47:10;;;;;;;5.75;3.22;;;;;;;1.67;81.20;98373.34;6092566;23;20409;-71
2023/01/17 07:49:36;;;;;;;5.25;2.50;;;;;;;1.63;81.13;98374.22;6091553;23;20105;-70
2023/01/17 07:52:02;;;;;;;5.28;3.45;;;;;;;1.59;81.43;98373.44;6094364;23;20037;-71
2023/01/17 07:54:28;;;;;;;5.68;3.28;;;;;;;1.59;81.68;98372.59;6092312;23;20093;-70
2023/01/17 07:56:53;;;;;;;5.78;2.90;;;;;;;1.56;81.78;98378.56;6094981;23;20022;-71
2023/01/17 07:59:18;;;;;;;6.78;2.92;;;;;;;1.55;81.80;98374.31;6094325;23;20049;-71
2023/01/17 08:01:44;;;;;;;4.63;2.97;;;;;;;1.57;81.42;98375.13;6093012;23;20022;-70
2023/01/17 08:04:10;;;;;;;5.18;3.33;;;;;;;1.59;81.17;98368.34;6095004;23;20016;-70
2023/01/17 08:06:38;;;;;;;6.43;3.47;;;;;;;1.62;81.60;98368.31;6095841;23;20018;-70
2023/01/17 08:09:03;;;;;;;6.28;2.90;;;;;;;1.66;81.23;98367.41;6093445;23;20025;-72
2023/01/17 08:11:29;;;;;;;5.97;2.75;;;;;;;1.75;80.64;98359.66;6091686;23;20101;-71
2023/01/17 08:13:58;;;;;;;5.90;2.78;;;;;;;1.87;80.37;98358.66;6091975;23;20026;-70
2023/01/17 08:16:24;;;;;;;4.30;2.58;;;;;;;2.03;79.08;98349.13;6091281;23;20010;-72
2023/01/17 08:18:50;;;;;;;4.95;2.78;;;;;;;2.21;78.12;98338.69;6092411;23;20009;-72
2023/01/17 08:21:16;;;;;;;4.72;3.35;;;;;;;2.41;77.50;98341.78;6090940;23;20098;-72
2023/01/17 08:23:46;;;;;;;3.90;2.88;;;;;;;2.58;76.58;98337.28;6082630;23;20041;-71
2023/01/17 08:26:20;;;;;;;6.18;3.75;;;;;;;2.72;76.45;98326.88;6090812;23;20019;-71
2023/01/17 08:28:53;;;;;;;4.47;3.15;;;;;;;2.80;76.46;98335.22;6091534;23;20023;-71
2023/01/17 08:31:20;;;;;;;9.73;2.97;;;;;;;2.81;75.22;98319.06;6092658;23;20010;-73
2023/01/17 08:33:45;;;;;;;8.25;3.00;;;;;;;2.81;75.79;98326.72;6092641;23;20387;-69
2023/01/17 08:36:11;;;;;;;4.70;3.00;;;;;;;2.78;75.27;98326.78;6089063;23;20044;-71
2023/01/17 08:38:36;;;;;;;4.35;3.05;;;;;;;2.76;75.50;98333.59;6090471;23;20021;-71
2023/01/17 08:41:01;;;;;;;5.60;2.97;;;;;;;2.75;75.75;98347.22;6090949;23;20458;-71
2023/01/17 08:43:27;;;;;;;5.65;4.00;;;;;;;2.75;76.98;98355.72;6089320;23;20026;-70
2023/01/17 08:45:54;;;;;;;11.05;4.57;;;;;;;2.77;77.16;98361.63;6092063;23;20009;-71
2023/01/17 08:48:23;;;;;;;7.40;4.32;;;;;;;2.76;77.16;98362.50;6091230;23;20014;-70
2023/01/17 08:50:48;;;;;;;6.10;3.85;;;;;;;2.74;77.16;98364.22;6090158;23;20053;-70
2023/01/17 08:53:14;;;;;;;5.25;3.70;;;;;;;2.69;77.27;98367.72;6090665;23;20018;-71
2023/01/17 08:55:40;;;;;;;7.43;3.55;;;;;;;2.65;77.92;98378.81;6091580;23;20030;-71
2023/01/17 08:58:06;;;;;;;8.02;4.28;;;;;;;2.62;76.69;98366.97;6088968;23;20033;-71
2023/01/17 09:00:33;;;;;;;10.05;4.68;;;;;;;2.66;76.38;98370.31;6091723;23;20562;-71
2023/01/17 09:02:58;;;;;;;6.63;4.35;;;;;;;2.78;75.96;98370.97;6091365;23;20014;-71
2023/01/17 09:05:24;;;;;;;5.90;4.00;;;;;;;2.94;75.77;98374.09;6091422;23;20050;-71
2023/01/17 09:07:49;;;;;;;6.15;4.03;;;;;;;3.10;75.22;98357.69;6090676;23;20028;-71
2023/01/17 09:10:15;;;;;;;4.20;3.13;;;;;;;3.27;73.88;98337.81;6091630;23;20022;-71
2023/01/17 09:12:41;;;;;;;5.57;3.80;;;;;;;3.44;73.73;98337.47;6091350;23;20018;-71
2023/01/17 09:15:07;;;;;;;5.80;3.35;;;;;;;3.52;73.08;98333.09;6091133;23;20018;-71
2023/01/17 09:17:32;;;;;;;4.50;3.60;;;;;;;3.53;72.42;98322.00;6089706;23;20029;-71
2023/01/17 09:19:58;;;;;;;6.15;3.42;;;;;;;3.54;71.04;98316.03;6088271;23;20023;-71
2023/01/17 09:22:27;;;;;;;3.85;3.08;;;;;;;3.54;71.72;98331.34;6090387;23;20021;-71
2023/01/17 09:24:52;;;;;;;7.63;3.78;;;;;;;3.52;72.01;98328.84;6091310;23;20002;-70
2023/01/17 09:27:19;;;;;;;10.65;5.45;;;;;;;3.50;72.71;98335.66;6092161;23;20070;-71
2023/01/17 09:29:45;;;;;;;7.90;4.10;;;;;;;3.47;72.37;98335.72;6088989;23;20402;-70
2023/01/17 09:32:10;;;;;;;6.45;2.83;;;;;;;3.49;72.68;98326.34;6092407;23;20033;-71
2023/01/17 09:34:36;;;;;;;6.43;4.32;;;;;;;3.51;71.57;98323.75;6094040;23;20045;-70
2023/01/17 09:37:01;;;;;;;6.40;3.40;;;;;;;3.48;71.89;98321.25;6092686;23;20006;-71
2023/01/17 09:39:27;;;;;;;5.50;3.95;;;;;;;3.50;72.08;98337.38;6091533;23;20022;-70
2023/01/17 09:42:03;;;;;;;6.43;3.35;;;;;;;3.54;72.70;98332.19;6093354;23;20357;-70
2023/01/17 09:44:34;;;;;;;4.70;3.22;;;;;;;3.59;72.05;98338.94;6091264;23;20018;-70
2023/01/17 09:47:18;;;;;;;5.70;3.45;;;;;;;3.68;72.22;98343.84;6090946;23;20026;-70
2023/01/17 09:49:45;;;;;;;6.47;3.53;;;;;;;3.65;72.20;98347.28;6093453;23;20489;-71
2023/01/17 09:52:15;;;;;;;7.85;3.63;;;;;;;3.69;71.60;98346.38;6092520;23;20002;-70
2023/01/17 09:54:42;;;;;;;7.45;3.58;;;;;;;3.74;71.51;98343.72;6090540;23;20025;-70
2023/01/17 09:57:12;;;;;;;6.03;3.50;;;;;;;3.76;71.93;98334.31;6091880;23;20022;-71
2023/01/17 09:59:40;;;;;;;5.32;3.33;;;;;;;3.78;69.55;98312.97;6091077;23;20743;-70
2023/01/17 10:02:14;;;;;;;6.20;3.55;;;;;;;3.81;69.22;98299.28;6091027;23;20038;-70
2023/01/17 10:04:58;;;;;;;6.32;3.40;;;;;;;3.81;68.63;98295.03;6090760;23;20018;-70
2023/01/17 10:07:48;;;;;;;6.45;3.72;;;;;;;3.82;68.34;98295.88;6092776;23;20474;-71
2023/01/17 10:10:35;;;;;;;5.43;2.65;;;;;;;3.86;68.10;98282.16;6093615;23;20003;-70
2023/01/17 10:13:36;;;;;;;5.40;2.78;;;;;;;3.88;67.97;98275.31;6090857;23;20022;-70
2023/01/17 10:16:20;;;;;;;6.90;2.97;;;;;;;3.89;67.69;98271.84;6091665;23;20034;-71
2023/01/17 10:19:37;;;;;;;8.85;3.30;;;;;;;3.90;66.49;98268.44;6112500;23;20386;-70
2023/01/17 10:22:14;;;;;;;4.72;2.30;;;;;;;3.95;65.68;98241.06;6058942;23;20496;-70
2023/01/17 10:25:04;;;;;;;6.10;2.08;;;;;;;4.03;65.45;98250.22;6092376;23;20343;-70
2023/01/17 10:27:33;;;;;;;7.28;1.58;;;;;;;4.05;64.34;98227.22;6092995;23;20085;-71
2023/01/17 10:30:03;;;;;;;4.50;1.83;;;;;;;3.96;65.00;98241.03;6093110;23;20022;-70
2023/01/17 10:32:32;;;;;;;6.18;1.85;;;;;;;3.88;65.48;98247.19;6092696;23;20046;-71
2023/01/17 10:35:04;;;;;;;5.43;2.28;;;;;;;3.86;65.69;98254.88;6090966;23;20022;-70
2023/01/17 10:37:40;;;;;;;2.80;2.08;;;;;;;3.89;65.67;98261.63;6092243;23;20461;-71
2023/01/17 10:40:19;;;;;;;3.10;1.90;;;;;;;3.93;65.64;98265.81;6093246;23;20018;-70
2023/01/17 10:43:01;;;;;;;5.78;1.90;;;;;;;3.97;66.45;98270.00;6092776;23;20563;-70
2023/01/17 10:45:38;;;;;;;3.45;1.63;;;;;;;3.96;66.50;98273.41;6091926;23;20477;-71
2023/01/17 10:48:13;;;;;;;5.93;2.13;;;;;;;4.01;65.22;98252.00;6091868;23;20074;-71
2023/01/17 10:50:55;;;;;;;5.25;1.90;;;;;;;4.02;66.00;98276.69;6089427;23;20033;-70
2023/01/17 10:53:30;;;;;;;4.97;1.88;;;;;;;4.04;65.19;98259.59;6091019;23;20030;-71
2023/01/17 10:55:56;;;;;;;;;;;;;;;4.07;66.45;98274.00;6091738;23;20026;-71
2023/01/17 10:58:23;;;;;;;4.32;2.30;;;;;;;4.08;66.95;98279.09;6092942;23;19920;-71
2023/01/17 11:01:01;;;;;;;4.95;1.67;;;;;;;4.10;66.17;98266.28;6092540;23;20026;-71
2023/01/17 11:03:27;;;;;;;7.60;1.85;;;;;;;4.09;65.87;98268.00;6093209;23;20022;-71
2023/01/17 11:06:21;;;;;;;5.32;1.80;;;;;;;4.11;66.17;98273.09;6094410;23;20014;-71
2023/01/17 11:09:09;;;;;;;4.32;1.90;;;;;;;4.15;66.56;98263.63;6089431;23;20117;-69
2023/01/17 11:11:45;;;;;;;5.15;2.30;;;;;;;4.21;66.41;98258.38;6092290;23;20018;-69
2023/01/17 11:14:20;;;;;;;4.95;2.08;;;;;;;4.27;66.43;98271.84;6095733;23;20025;-71
2023/01/17 11:16:58;;;;;;;4.85;1.63;;;;;;;4.32;65.50;98251.28;6095335;23;20018;-71
2023/01/17 11:19:34;;;;;;;8.10;2.08;;;;;;;4.38;66.73;98263.94;6094262;23;20078;-72
2023/01/17 11:22:05;;;;;;;7.30;1.85;;;;;;;4.42;67.12;98260.41;6094821;23;20021;-71
2023/01/17 11:24:39;;;;;;;4.65;1.90;;;;;;;4.45;66.20;98255.22;6095490;23;20038;-72
2023/01/17 11:27:06;;;;;;;4.20;1.92;;;;;;;4.49;66.84;98247.47;6094646;23;20022;-71
2023/01/17 11:29:36;;;;;;;5.47;1.58;;;;;;;4.53;65.37;98240.56;6093370;23;20034;-71
2023/01/17 11:32:19;;;;;;;6.63;2.17;;;;;;;4.53;65.44;98226.06;6093457;23;20053;-71
2023/01/17 11:35:18;;;;;;;8.35;1.63;;;;;;;4.58;64.57;98213.97;6092462;23;20109;-71
2023/01/17 11:38:18;;;;;;;6.40;1.58;;;;;;;4.63;64.34;98222.38;6090347;23;20458;-70
2023/01/17 11:40:45;;;;;;;4.03;1.70;;;;;;;4.62;63.45;98192.56;6089205;23;20069;-71
2023/01/17 11:43:11;;;;;;;3.15;1.90;;;;;;;4.62;63.64;98191.72;6091984;23;20488;-71
2023/01/17 11:45:38;;;;;;;2.28;1.20;;;;;;;4.67;62.98;98187.31;6090762;23;20026;-71
2023/01/17 11:48:06;;;;;;;7.10;1.40;;;;;;;4.69;62.71;98188.09;6091748;23;20137;-71
2023/01/17 11:50:37;;;;;;;3.55;1.25;;;;;;;4.74;61.58;98157.31;6090914;23;20054;-72
2023/01/17 11:53:29;;;;;;;7.28;1.40;;;;;;;4.78;61.94;98172.50;6093543;23;20034;-72
2023/01/17 11:55:57;;;;;;;7.18;1.65;;;;;;;4.73;61.65;98163.28;6091392;23;20010;-71
2023/01/17 11:58:23;;;;;;;5.47;1.85;;;;;;;4.81;61.97;98179.25;6091464;23;20093;-71
2023/01/17 12:01:04;;;;;;;4.05;1.50;;;;;;;4.86;62.04;98178.28;6088007;23;20076;-71
2023/01/17 12:04:06;;;;;;;3.85;1.77;;;;;;;4.88;62.23;98191.88;6092522;23;20391;-71
2023/01/17 12:07:05;;;;;;;8.00;2.20;;;;;;;4.92;63.17;98193.44;6072958;23;20358;-71
2023/01/17 12:09:57;;;;;;;3.30;1.50;;;;;;;4.91;63.36;98201.19;6091077;23;20466;-71
2023/01/17 12:15:45;;;;;;;6.95;2.20;;;;;;;4.71;64.77;98218.78;6092354;23;20485;-70
2023/01/17 12:18:10;;;;;;;4.15;1.70;;;;;;;4.58;63.64;98203.75;6080267;23;20026;-69
2023/01/17 12:21:10;;;;;;;6.07;1.95;;;;;;;4.60;63.81;98194.31;6090751;23;20417;-69
2023/01/17 12:23:44;;;;;;;5.45;1.65;;;;;;;4.50;64.12;98200.56;6083725;23;20033;-69
2023/01/17 12:26:36;;;;;;;9.27;1.80;;;;;;;4.41;65.28;98208.44;6091229;23;20014;-70
2023/01/17 12:29:30;;;;;;;6.75;1.65;;;;;;;4.31;65.83;98229.16;6091550;23;20042;-70
2023/01/17 12:32:08;;;;;;;6.55;2.08;;;;;;;4.22;65.75;98207.19;6090186;23;20025;-69
2023/01/17 12:34:45;;;;;;;2.90;1.75;;;;;;;4.19;65.26;98209.84;6092154;23;20010;-70
2023/01/17 12:37:33;;;;;;;2.85;1.30;;;;;;;4.16;65.37;98202.22;6091622;23;20005;-69
2023/01/17 12:39:58;;;;;;;7.70;1.70;;;;;;;4.17;66.17;98211.59;6091749;23;20075;-69
2023/01/17 12:42:30;;;;;;;5.75;2.08;;;;;;;4.21;66.25;98215.75;6090850;23;20018;-69
2023/01/17 12:45:12;;;;;;;9.65;2.20;;;;;;;4.17;67.01;98231.19;6090124;23;20102;-69
2023/01/17 12:47:43;;;;;;;5.22;2.05;;;;;;;4.17;66.00;98206.47;6090668;23;20022;-70
2023/01/17 12:50:22;;;;;;;8.15;1.83;;;;;;;4.19;66.34;98208.97;6090849;23;20022;-70
2023/01/17 12:52:47;;;;;;;5.60;1.70;;;;;;;4.19;65.50;98189.38;6091790;23;20085;-70
2023/01/17 12:55:19;;;;;;;8.82;1.98;;;;;;;4.20;64.89;98173.19;6093511;23;20422;-69
2023/01/17 12:57:53;;;;;;;6.45;1.70;;;;;;;4.17;64.15;98172.41;6093726;23;20239;-67
2023/01/17 13:00:22;;;;;;;7.82;1.60;;;;;;;4.15;62.99;98141.75;6092938;23;20050;-71
2023/01/17 13:03:03;;;;;;;6.65;1.58;;;;;;;4.13;63.67;98148.63;6090641;23;20038;-69
2023/01/17 13:05:35;;;;;;;5.65;1.45;;;;;;;4.07;64.50;98159.84;6091591;23;20014;-70
2023/01/17 13:08:23;;;;;;;7.40;1.23;;;;;;;4.07;65.71;98187.97;6092022;23;20034;-71
2023/01/17 13:11:12;;;;;;;4.78;1.20;;;;;;;4.16;65.38;98188.59;6090763;23;20022;-70
2023/01/17 13:13:40;;;;;;;9.18;2.80;;;;;;;4.27;64.74;98163.66;6091130;23;20018;-70
2023/01/17 13:16:20;;;;;;;5.38;1.98;;;;;;;4.37;62.33;98135.22;6092428;23;20011;-70
2023/01/17 13:18:47;;;;;;;6.32;1.80;;;;;;;4.50;63.35;98151.09;6090287;23;20021;-71
2023/01/17 13:21:33;;;;;;;6.88;2.22;;;;;;;4.57;62.78;98150.91;6089782;23;20374;-70
2023/01/17 13:24:14;;;;;;;4.55;2.03;;;;;;;4.67;62.73;98148.94;6090710;23;20022;-71